Strasburg, OH (44680)

9:15 AM EST on February 20, 2017 (GMT -0500)
GET | | Change Station
Active Advisory: Dense Fog Advisory

Elev 980 ft 40.63 °N, 81.53 °W | Updated 21 seconds ago

Mostly Cloudy
Mostly Cloudy
38.2 °F
Feels Like 38 °F
N
0.0
Wind Variable Wind from SSE
Gusts 9.0 mph

Today
High -- | Low -- °F
--% Chance of Precip.
Yesterday
High -- | Low -- °F
Precip. -- in
Pressure 30.31 in
Visibility 0.2 miles
Clouds
Windchill 38 °F
Dew Point 38 °F
Humidity 98%
Rainfall 0.00 in
Snow Depth Not available.
7:12 AM 6:07 PM
Waning Crescent, 34% visible
METAR KPHD 201353Z AUTO 12003KT M1/4SM FG VV002 04/04 A3029 RMK AO2 SLP262 T00390039
Pressure 30.31 in
Visibility 0.2 miles
Clouds
Windchill 38 °F
Dew Point 38 °F
Humidity 98%
Rainfall 0.00 in
Snow Depth Not available.
7:12 AM 6:07 PM
Waning Crescent, 34% visible
METAR KPHD 201353Z AUTO 12003KT M1/4SM FG VV002 04/04 A3029 RMK AO2 SLP262 T00390039

Get Your Daily Forecast Email!

Thanks for signing up!

Be on the lookout for a verification email in your inbox.

You'll start receiving the daily forecast at 8 AM.

×

10-Day Weather Forecast

Almanac

Astronomy

Feb. 20, 2017 Rise Set
Actual Time
Civil Twilight
Nautical Twilight
Astronomical Twilight
Moon
Length of Visible Light
Length of Day
Tomorrow will be .
, % of the Moon is Illuminated

Today's Extremes

State Highs State Lows

Community

WunderPhotos

Upload Photos

1,962,540 photos uploaded!

WunderBlog® & News

Nearby

Air Quality

  Air Quality AQ Index Pollutant
Not available.

Snow Depth

Station Depth Elevation

Earthquake Activity

City Distance Mag. Time & Date
Minimum magnitude displayed is 2.5.

Coastal Water Temperatures

Place Temperature

Stations

Nearby Weather Stations

Station Location Temp. Windchill Dew Point Humidity Wind Precip. Elev Updated Type
                   

Watches & Warnings

Dense Fog Advisory
Issued: 4:57 AM EST Feb. 20, 2017 – National Weather Service

... Dense fog advisory remains in effect until 10 am EST this
morning...

* visibilities... one quarter mile or less at times.

* Timing... through 10 am Monday.

* Impacts... limited visibilities will make travel very difficult.

Precautionary/preparedness actions...

A dense fog advisory means visibilities will frequently be
reduced to less than one quarter mile. If driving... slow down...
use your headlights... and leave plenty of distance ahead of you.